sensor_id;sensor_type;location;lat;lon;timestamp;P1;durP1;ratioP1;P2;durP2;ratioP2
6693;SDS011;3384;42.628;23.380;2022-12-31T00:00:04;21.27;;;12.40;;
6693;SDS011;3384;42.628;23.380;2022-12-31T00:02:32;26.07;;;13.63;;
6693;SDS011;3384;42.628;23.380;2022-12-31T00:04:59;20.43;;;12.27;;
6693;SDS011;3384;42.628;23.380;2022-12-31T00:07:25;16.67;;;12.40;;
6693;SDS011;3384;42.628;23.380;2022-12-31T00:09:52;25.00;;;12.30;;
6693;SDS011;3384;42.628;23.380;2022-12-31T00:12:19;16.73;;;12.67;;
6693;SDS011;3384;42.628;23.380;2022-12-31T00:14:45;15.90;;;10.40;;
6693;SDS011;3384;42.628;23.380;2022-12-31T00:17:12;27.33;;;11.33;;
6693;SDS011;3384;42.628;23.380;2022-12-31T00:19:40;13.07;;;10.47;;
6693;SDS011;3384;42.628;23.380;2022-12-31T00:22:06;14.83;;;10.07;;
6693;SDS011;3384;42.628;23.380;2022-12-31T00:24:33;13.47;;;9.90;;
6693;SDS011;3384;42.628;23.380;2022-12-31T00:27:00;10.63;;;8.30;;
6693;SDS011;3384;42.628;23.380;2022-12-31T00:29:26;9.27;;;8.33;;
6693;SDS011;3384;42.628;23.380;2022-12-31T00:31:53;10.70;;;8.67;;
6693;SDS011;3384;42.628;23.380;2022-12-31T00:34:19;12.20;;;8.57;;
6693;SDS011;3384;42.628;23.380;2022-12-31T00:36:47;17.43;;;8.77;;
6693;SDS011;3384;42.628;23.380;2022-12-31T00:39:14;10.80;;;8.20;;
6693;SDS011;3384;42.628;23.380;2022-12-31T00:41:40;11.53;;;8.30;;
6693;SDS011;3384;42.628;23.380;2022-12-31T00:44:09;11.70;;;6.73;;
6693;SDS011;3384;42.628;23.380;2022-12-31T00:46:36;5.93;;;5.37;;
6693;SDS011;3384;42.628;23.380;2022-12-31T00:49:02;7.37;;;6.67;;
6693;SDS011;3384;42.628;23.380;2022-12-31T00:51:29;6.50;;;6.10;;
6693;SDS011;3384;42.628;23.380;2022-12-31T00:53:57;7.40;;;6.70;;
6693;SDS011;3384;42.628;23.380;2022-12-31T00:56:25;7.93;;;6.00;;
6693;SDS011;3384;42.628;23.380;2022-12-31T00:58:52;7.60;;;6.90;;
6693;SDS011;3384;42.628;23.380;2022-12-31T01:01:20;6.60;;;6.30;;
6693;SDS011;3384;42.628;23.380;2022-12-31T01:03:47;8.90;;;7.10;;
6693;SDS011;3384;42.628;23.380;2022-12-31T01:06:14;7.37;;;6.67;;
6693;SDS011;3384;42.628;23.380;2022-12-31T01:08:41;7.73;;;6.90;;
6693;SDS011;3384;42.628;23.380;2022-12-31T01:11:10;7.83;;;7.17;;
6693;SDS011;3384;42.628;23.380;2022-12-31T01:13:46;9.37;;;7.87;;
6693;SDS011;3384;42.628;23.380;2022-12-31T01:16:14;8.80;;;6.73;;
6693;SDS011;3384;42.628;23.380;2022-12-31T01:18:40;9.17;;;8.00;;
6693;SDS011;3384;42.628;23.380;2022-12-31T01:21:08;12.53;;;9.83;;
6693;SDS011;3384;42.628;23.380;2022-12-31T01:23:35;14.73;;;9.10;;
6693;SDS011;3384;42.628;23.380;2022-12-31T01:26:02;13.93;;;10.80;;
6693;SDS011;3384;42.628;23.380;2022-12-31T01:28:30;10.53;;;9.53;;
6693;SDS011;3384;42.628;23.380;2022-12-31T01:30:57;14.30;;;10.50;;
6693;SDS011;3384;42.628;23.380;2022-12-31T01:33:24;14.10;;;10.23;;
6693;SDS011;3384;42.628;23.380;2022-12-31T01:35:50;14.33;;;10.63;;
6693;SDS011;3384;42.628;23.380;2022-12-31T01:38:17;16.00;;;11.90;;
6693;SDS011;3384;42.628;23.380;2022-12-31T01:40:43;20.90;;;12.60;;
6693;SDS011;3384;42.628;23.380;2022-12-31T01:43:12;20.93;;;13.13;;
6693;SDS011;3384;42.628;23.380;2022-12-31T01:45:41;19.67;;;12.80;;
6693;SDS011;3384;42.628;23.380;2022-12-31T01:48:09;14.33;;;11.30;;
6693;SDS011;3384;42.628;23.380;2022-12-31T01:50:37;19.50;;;12.00;;
6693;SDS011;3384;42.628;23.380;2022-12-31T01:53:05;20.47;;;13.53;;
6693;SDS011;3384;42.628;23.380;2022-12-31T01:55:35;20.83;;;13.30;;
6693;SDS011;3384;42.628;23.380;2022-12-31T01:58:04;20.53;;;12.70;;
6693;SDS011;3384;42.628;23.380;2022-12-31T02:00:31;16.47;;;12.63;;
6693;SDS011;3384;42.628;23.380;2022-12-31T02:02:59;16.37;;;12.70;;
6693;SDS011;3384;42.628;23.380;2022-12-31T02:05:28;20.07;;;12.50;;
6693;SDS011;3384;42.628;23.380;2022-12-31T02:07:56;15.40;;;11.23;;
6693;SDS011;3384;42.628;23.380;2022-12-31T02:10:22;20.83;;;12.10;;
6693;SDS011;3384;42.628;23.380;2022-12-31T02:12:49;13.10;;;10.70;;
6693;SDS011;3384;42.628;23.380;2022-12-31T02:15:16;12.47;;;10.30;;
6693;SDS011;3384;42.628;23.380;2022-12-31T02:17:49;10.80;;;9.57;;
6693;SDS011;3384;42.628;23.380;2022-12-31T02:20:23;11.77;;;8.50;;
6693;SDS011;3384;42.628;23.380;2022-12-31T02:23:04;10.93;;;9.07;;
6693;SDS011;3384;42.628;23.380;2022-12-31T02:25:49;11.40;;;9.50;;
6693;SDS011;3384;42.628;23.380;2022-12-31T02:28:19;12.80;;;10.03;;
6693;SDS011;3384;42.628;23.380;2022-12-31T02:30:53;14.47;;;9.47;;
6693;SDS011;3384;42.628;23.380;2022-12-31T02:33:23;13.97;;;9.60;;
6693;SDS011;3384;42.628;23.380;2022-12-31T02:35:54;30.83;;;12.00;;
6693;SDS011;3384;42.628;23.380;2022-12-31T02:38:23;10.73;;;9.13;;
6693;SDS011;3384;42.628;23.380;2022-12-31T02:40:51;12.70;;;10.40;;
6693;SDS011;3384;42.628;23.380;2022-12-31T02:43:18;12.30;;;9.63;;
6693;SDS011;3384;42.628;23.380;2022-12-31T02:45:46;16.37;;;9.97;;
6693;SDS011;3384;42.628;23.380;2022-12-31T02:48:25;12.73;;;9.47;;
6693;SDS011;3384;42.628;23.380;2022-12-31T02:50:56;13.97;;;10.03;;
6693;SDS011;3384;42.628;23.380;2022-12-31T02:53:29;68.80;;;33.90;;
6693;SDS011;3384;42.628;23.380;2022-12-31T02:56:01;18.70;;;11.23;;
6693;SDS011;3384;42.628;23.380;2022-12-31T02:58:30;14.60;;;10.87;;
6693;SDS011;3384;42.628;23.380;2022-12-31T03:01:12;10.83;;;9.03;;
6693;SDS011;3384;42.628;23.380;2022-12-31T03:03:59;9.30;;;8.37;;
6693;SDS011;3384;42.628;23.380;2022-12-31T03:06:49;11.70;;;9.17;;
6693;SDS011;3384;42.628;23.380;2022-12-31T03:09:16;10.07;;;9.17;;
6693;SDS011;3384;42.628;23.380;2022-12-31T03:11:42;10.63;;;9.43;;
6693;SDS011;3384;42.628;23.380;2022-12-31T03:14:26;21.70;;;9.60;;
6693;SDS011;3384;42.628;23.380;2022-12-31T03:16:53;12.33;;;8.37;;
6693;SDS011;3384;42.628;23.380;2022-12-31T03:19:20;13.20;;;8.80;;
6693;SDS011;3384;42.628;23.380;2022-12-31T03:22:05;9.97;;;8.50;;
6693;SDS011;3384;42.628;23.380;2022-12-31T03:24:48;9.50;;;8.57;;
6693;SDS011;3384;42.628;23.380;2022-12-31T03:27:32;8.90;;;8.00;;
6693;SDS011;3384;42.628;23.380;2022-12-31T03:29:59;14.47;;;8.70;;
6693;SDS011;3384;42.628;23.380;2022-12-31T03:32:25;10.40;;;9.30;;
6693;SDS011;3384;42.628;23.380;2022-12-31T03:34:53;10.10;;;8.80;;
6693;SDS011;3384;42.628;23.380;2022-12-31T03:37:20;9.30;;;8.17;;
6693;SDS011;3384;42.628;23.380;2022-12-31T03:39:47;9.90;;;8.17;;
6693;SDS011;3384;42.628;23.380;2022-12-31T03:42:13;9.30;;;8.33;;
6693;SDS011;3384;42.628;23.380;2022-12-31T03:44:40;8.37;;;7.60;;
6693;SDS011;3384;42.628;23.380;2022-12-31T03:47:06;7.27;;;6.80;;
6693;SDS011;3384;42.628;23.380;2022-12-31T03:49:33;9.63;;;7.00;;
6693;SDS011;3384;42.628;23.380;2022-12-31T03:52:01;8.90;;;8.10;;
6693;SDS011;3384;42.628;23.380;2022-12-31T03:54:30;7.93;;;7.23;;
6693;SDS011;3384;42.628;23.380;2022-12-31T03:56:57;7.90;;;7.20;;
6693;SDS011;3384;42.628;23.380;2022-12-31T03:59:23;9.33;;;8.43;;
6693;SDS011;3384;42.628;23.380;2022-12-31T04:01:50;9.30;;;7.57;;
6693;SDS011;3384;42.628;23.380;2022-12-31T04:04:16;9.00;;;8.10;;
6693;SDS011;3384;42.628;23.380;2022-12-31T04:06:43;8.97;;;8.07;;
6693;SDS011;3384;42.628;23.380;2022-12-31T04:09:11;7.97;;;7.23;;
6693;SDS011;3384;42.628;23.380;2022-12-31T04:11:37;10.57;;;7.57;;
6693;SDS011;3384;42.628;23.380;2022-12-31T04:14:04;12.20;;;8.10;;
6693;SDS011;3384;42.628;23.380;2022-12-31T04:16:30;10.70;;;7.17;;
6693;SDS011;3384;42.628;23.380;2022-12-31T04:18:57;7.83;;;7.13;;
6693;SDS011;3384;42.628;23.380;2022-12-31T04:21:24;10.00;;;8.03;;
6693;SDS011;3384;42.628;23.380;2022-12-31T04:23:50;8.33;;;7.53;;
6693;SDS011;3384;42.628;23.380;2022-12-31T04:26:18;11.83;;;8.60;;
6693;SDS011;3384;42.628;23.380;2022-12-31T04:28:44;19.33;;;8.33;;
6693;SDS011;3384;42.628;23.380;2022-12-31T04:31:11;9.43;;;8.53;;
6693;SDS011;3384;42.628;23.380;2022-12-31T04:33:38;9.73;;;8.30;;
6693;SDS011;3384;42.628;23.380;2022-12-31T04:36:06;16.20;;;8.63;;
6693;SDS011;3384;42.628;23.380;2022-12-31T04:38:33;8.93;;;8.10;;
6693;SDS011;3384;42.628;23.380;2022-12-31T04:40:59;11.40;;;9.67;;
6693;SDS011;3384;42.628;23.380;2022-12-31T04:43:47;10.70;;;9.07;;
6693;SDS011;3384;42.628;23.380;2022-12-31T04:46:14;8.87;;;8.13;;
6693;SDS011;3384;42.628;23.380;2022-12-31T04:48:41;9.70;;;8.87;;
6693;SDS011;3384;42.628;23.380;2022-12-31T04:51:08;10.03;;;8.30;;
6693;SDS011;3384;42.628;23.380;2022-12-31T04:53:34;10.13;;;9.17;;
6693;SDS011;3384;42.628;23.380;2022-12-31T04:56:01;8.77;;;7.90;;
6693;SDS011;3384;42.628;23.380;2022-12-31T04:58:28;9.13;;;8.23;;
6693;SDS011;3384;42.628;23.380;2022-12-31T05:00:56;9.97;;;8.97;;
6693;SDS011;3384;42.628;23.380;2022-12-31T05:03:23;10.57;;;8.83;;
6693;SDS011;3384;42.628;23.380;2022-12-31T05:05:51;12.43;;;8.60;;
6693;SDS011;3384;42.628;23.380;2022-12-31T05:08:18;9.53;;;8.63;;
6693;SDS011;3384;42.628;23.380;2022-12-31T05:10:45;16.80;;;8.07;;
6693;SDS011;3384;42.628;23.380;2022-12-31T05:13:12;8.03;;;6.50;;
6693;SDS011;3384;42.628;23.380;2022-12-31T05:15:38;14.10;;;8.27;;
6693;SDS011;3384;42.628;23.380;2022-12-31T05:18:06;12.80;;;8.03;;
6693;SDS011;3384;42.628;23.380;2022-12-31T05:20:33;8.57;;;7.73;;
6693;SDS011;3384;42.628;23.380;2022-12-31T05:23:00;14.33;;;10.10;;
6693;SDS011;3384;42.628;23.380;2022-12-31T05:25:27;15.87;;;12.73;;
6693;SDS011;3384;42.628;23.380;2022-12-31T05:27:53;21.40;;;14.47;;
6693;SDS011;3384;42.628;23.380;2022-12-31T05:30:20;21.70;;;14.10;;
6693;SDS011;3384;42.628;23.380;2022-12-31T05:32:47;18.50;;;12.87;;
6693;SDS011;3384;42.628;23.380;2022-12-31T05:35:15;21.63;;;14.43;;
6693;SDS011;3384;42.628;23.380;2022-12-31T05:37:42;23.67;;;14.23;;
6693;SDS011;3384;42.628;23.380;2022-12-31T05:40:09;22.97;;;15.20;;
6693;SDS011;3384;42.628;23.380;2022-12-31T05:42:36;22.13;;;15.20;;
6693;SDS011;3384;42.628;23.380;2022-12-31T05:45:03;22.87;;;15.30;;
6693;SDS011;3384;42.628;23.380;2022-12-31T05:47:29;17.33;;;13.47;;
6693;SDS011;3384;42.628;23.380;2022-12-31T05:49:56;21.23;;;14.13;;
6693;SDS011;3384;42.628;23.380;2022-12-31T05:52:24;19.47;;;13.30;;
6693;SDS011;3384;42.628;23.380;2022-12-31T05:54:50;16.83;;;13.10;;
6693;SDS011;3384;42.628;23.380;2022-12-31T05:57:17;13.20;;;11.57;;
6693;SDS011;3384;42.628;23.380;2022-12-31T05:59:43;15.97;;;11.43;;
6693;SDS011;3384;42.628;23.380;2022-12-31T06:02:10;15.27;;;9.33;;
6693;SDS011;3384;42.628;23.380;2022-12-31T06:04:36;11.93;;;9.70;;
6693;SDS011;3384;42.628;23.380;2022-12-31T06:07:03;11.27;;;9.83;;
6693;SDS011;3384;42.628;23.380;2022-12-31T06:09:31;11.50;;;9.07;;
6693;SDS011;3384;42.628;23.380;2022-12-31T06:11:57;10.40;;;8.97;;
6693;SDS011;3384;42.628;23.380;2022-12-31T06:14:24;9.83;;;8.50;;
6693;SDS011;3384;42.628;23.380;2022-12-31T06:16:50;10.80;;;9.33;;
6693;SDS011;3384;42.628;23.380;2022-12-31T06:19:17;9.80;;;8.10;;
6693;SDS011;3384;42.628;23.380;2022-12-31T06:21:43;9.37;;;8.40;;
6693;SDS011;3384;42.628;23.380;2022-12-31T06:24:10;8.83;;;8.03;;
6693;SDS011;3384;42.628;23.380;2022-12-31T06:26:38;12.60;;;7.40;;
6693;SDS011;3384;42.628;23.380;2022-12-31T06:29:05;9.27;;;8.30;;
6693;SDS011;3384;42.628;23.380;2022-12-31T06:31:31;8.23;;;7.50;;
6693;SDS011;3384;42.628;23.380;2022-12-31T06:33:58;20.83;;;13.90;;
6693;SDS011;3384;42.628;23.380;2022-12-31T06:36:24;18.90;;;12.60;;
6693;SDS011;3384;42.628;23.380;2022-12-31T06:38:51;11.93;;;10.07;;
6693;SDS011;3384;42.628;23.380;2022-12-31T06:41:18;15.70;;;10.33;;
6693;SDS011;3384;42.628;23.380;2022-12-31T06:43:46;21.77;;;15.13;;
6693;SDS011;3384;42.628;23.380;2022-12-31T06:46:13;18.07;;;13.10;;
6693;SDS011;3384;42.628;23.380;2022-12-31T06:48:40;15.40;;;9.40;;
6693;SDS011;3384;42.628;23.380;2022-12-31T06:51:09;9.00;;;8.13;;
6693;SDS011;3384;42.628;23.380;2022-12-31T06:53:36;9.17;;;8.10;;
6693;SDS011;3384;42.628;23.380;2022-12-31T06:56:03;10.10;;;8.40;;
6693;SDS011;3384;42.628;23.380;2022-12-31T06:58:30;9.83;;;8.93;;
6693;SDS011;3384;42.628;23.380;2022-12-31T07:00:59;10.57;;;9.07;;
6693;SDS011;3384;42.628;23.380;2022-12-31T07:03:28;10.87;;;8.93;;
6693;SDS011;3384;42.628;23.380;2022-12-31T07:05:58;15.20;;;9.47;;
6693;SDS011;3384;42.628;23.380;2022-12-31T07:08:31;14.60;;;8.30;;
6693;SDS011;3384;42.628;23.380;2022-12-31T07:11:00;13.93;;;9.27;;
6693;SDS011;3384;42.628;23.380;2022-12-31T07:16:18;14.73;;;9.10;;
6693;SDS011;3384;42.628;23.380;2022-12-31T07:18:47;7.20;;;6.50;;
6693;SDS011;3384;42.628;23.380;2022-12-31T07:21:17;7.57;;;6.97;;
6693;SDS011;3384;42.628;23.380;2022-12-31T07:23:44;8.77;;;7.77;;
6693;SDS011;3384;42.628;23.380;2022-12-31T07:26:13;7.23;;;6.70;;
6693;SDS011;3384;42.628;23.380;2022-12-31T07:28:46;6.50;;;6.10;;
6693;SDS011;3384;42.628;23.380;2022-12-31T07:31:16;5.83;;;5.30;;
6693;SDS011;3384;42.628;23.380;2022-12-31T07:33:51;6.07;;;5.67;;
6693;SDS011;3384;42.628;23.380;2022-12-31T07:36:22;5.93;;;5.53;;
6693;SDS011;3384;42.628;23.380;2022-12-31T07:38:52;6.20;;;5.47;;
6693;SDS011;3384;42.628;23.380;2022-12-31T07:41:24;5.23;;;4.93;;
6693;SDS011;3384;42.628;23.380;2022-12-31T07:43:58;6.53;;;6.03;;
6693;SDS011;3384;42.628;23.380;2022-12-31T07:46:30;5.43;;;5.13;;
6693;SDS011;3384;42.628;23.380;2022-12-31T07:49:00;8.17;;;5.53;;
6693;SDS011;3384;42.628;23.380;2022-12-31T07:51:27;6.27;;;5.70;;
6693;SDS011;3384;42.628;23.380;2022-12-31T07:53:54;5.47;;;5.07;;
6693;SDS011;3384;42.628;23.380;2022-12-31T07:59:11;7.67;;;6.60;;
6693;SDS011;3384;42.628;23.380;2022-12-31T08:01:40;5.33;;;4.77;;
6693;SDS011;3384;42.628;23.380;2022-12-31T08:04:13;7.53;;;6.30;;
6693;SDS011;3384;42.628;23.380;2022-12-31T08:06:44;6.10;;;5.60;;
6693;SDS011;3384;42.628;23.380;2022-12-31T08:09:17;6.40;;;6.10;;
6693;SDS011;3384;42.628;23.380;2022-12-31T08:11:50;6.67;;;6.17;;
6693;SDS011;3384;42.628;23.380;2022-12-31T08:14:19;6.20;;;5.70;;
6693;SDS011;3384;42.628;23.380;2022-12-31T08:16:46;6.30;;;5.80;;
6693;SDS011;3384;42.628;23.380;2022-12-31T08:19:23;7.97;;;7.17;;
6693;SDS011;3384;42.628;23.380;2022-12-31T08:21:54;8.90;;;6.20;;
6693;SDS011;3384;42.628;23.380;2022-12-31T08:24:24;6.47;;;5.70;;
6693;SDS011;3384;42.628;23.380;2022-12-31T08:26:59;7.30;;;6.50;;
6693;SDS011;3384;42.628;23.380;2022-12-31T08:29:34;6.87;;;6.27;;
6693;SDS011;3384;42.628;23.380;2022-12-31T08:32:05;6.93;;;6.30;;
6693;SDS011;3384;42.628;23.380;2022-12-31T08:34:36;6.70;;;6.20;;
6693;SDS011;3384;42.628;23.380;2022-12-31T08:37:05;7.80;;;7.10;;
6693;SDS011;3384;42.628;23.380;2022-12-31T08:39:41;7.33;;;6.70;;
6693;SDS011;3384;42.628;23.380;2022-12-31T08:42:17;7.07;;;6.40;;
6693;SDS011;3384;42.628;23.380;2022-12-31T08:44:47;7.67;;;6.33;;
6693;SDS011;3384;42.628;23.380;2022-12-31T08:47:19;7.57;;;6.90;;
6693;SDS011;3384;42.628;23.380;2022-12-31T08:49:47;8.80;;;7.80;;
6693;SDS011;3384;42.628;23.380;2022-12-31T08:52:14;10.57;;;9.47;;
6693;SDS011;3384;42.628;23.380;2022-12-31T08:54:45;11.00;;;8.90;;
6693;SDS011;3384;42.628;23.380;2022-12-31T09:00:04;12.73;;;9.90;;
6693;SDS011;3384;42.628;23.380;2022-12-31T09:02:35;14.60;;;10.13;;
6693;SDS011;3384;42.628;23.380;2022-12-31T09:05:08;15.23;;;10.47;;
6693;SDS011;3384;42.628;23.380;2022-12-31T09:18:35;23.47;;;13.87;;
6693;SDS011;3384;42.628;23.380;2022-12-31T09:21:04;24.43;;;16.67;;
6693;SDS011;3384;42.628;23.380;2022-12-31T09:23:30;24.83;;;15.93;;
6693;SDS011;3384;42.628;23.380;2022-12-31T09:25:59;26.33;;;15.53;;
6693;SDS011;3384;42.628;23.380;2022-12-31T09:28:31;26.97;;;16.13;;
6693;SDS011;3384;42.628;23.380;2022-12-31T09:31:03;21.77;;;14.47;;
6693;SDS011;3384;42.628;23.380;2022-12-31T09:33:35;19.63;;;14.17;;
6693;SDS011;3384;42.628;23.380;2022-12-31T09:36:04;19.67;;;14.13;;
6693;SDS011;3384;42.628;23.380;2022-12-31T09:38:33;19.73;;;14.57;;
6693;SDS011;3384;42.628;23.380;2022-12-31T09:41:10;22.73;;;15.57;;
6693;SDS011;3384;42.628;23.380;2022-12-31T09:46:32;23.17;;;16.50;;
6693;SDS011;3384;42.628;23.380;2022-12-31T09:49:16;26.47;;;17.30;;
6693;SDS011;3384;42.628;23.380;2022-12-31T09:51:49;25.10;;;18.27;;
6693;SDS011;3384;42.628;23.380;2022-12-31T09:54:29;21.67;;;17.50;;
6693;SDS011;3384;42.628;23.380;2022-12-31T09:57:05;31.00;;;17.47;;
6693;SDS011;3384;42.628;23.380;2022-12-31T09:59:38;26.73;;;16.00;;
6693;SDS011;3384;42.628;23.380;2022-12-31T10:02:11;24.57;;;16.97;;
6693;SDS011;3384;42.628;23.380;2022-12-31T10:04:51;26.60;;;17.33;;
6693;SDS011;3384;42.628;23.380;2022-12-31T10:07:31;28.77;;;19.80;;
6693;SDS011;3384;42.628;23.380;2022-12-31T10:10:02;31.00;;;19.50;;
6693;SDS011;3384;42.628;23.380;2022-12-31T10:12:34;40.37;;;21.43;;
6693;SDS011;3384;42.628;23.380;2022-12-31T10:15:08;39.37;;;21.43;;
6693;SDS011;3384;42.628;23.380;2022-12-31T10:17:43;31.90;;;21.37;;
6693;SDS011;3384;42.628;23.380;2022-12-31T10:23:00;40.93;;;22.53;;
6693;SDS011;3384;42.628;23.380;2022-12-31T10:25:39;42.37;;;26.07;;
6693;SDS011;3384;42.628;23.380;2022-12-31T10:28:13;41.10;;;23.27;;
6693;SDS011;3384;42.628;23.380;2022-12-31T10:30:44;50.83;;;26.67;;
6693;SDS011;3384;42.628;23.380;2022-12-31T10:33:14;46.90;;;24.70;;
6693;SDS011;3384;42.628;23.380;2022-12-31T10:35:42;37.20;;;22.57;;
6693;SDS011;3384;42.628;23.380;2022-12-31T10:38:21;39.00;;;24.23;;
